sensor_id;sensor_type;location;lat;lon;timestamp;P1;durP1;ratioP1;P2;durP2;ratioP2
66802;SDS011;53705;49.860;8.744;2023-05-10T00:00:14;2.35;;;0.20;;
66802;SDS011;53705;49.860;8.744;2023-05-10T00:02:42;1.40;;;0.13;;
66802;SDS011;53705;49.860;8.744;2023-05-10T00:05:10;3.22;;;0.32;;
66802;SDS011;53705;49.860;8.744;2023-05-10T00:07:39;1.77;;;0.30;;
66802;SDS011;53705;49.860;8.744;2023-05-10T00:10:11;1.33;;;0.25;;
66802;SDS011;53705;49.860;8.744;2023-05-10T00:12:39;0.93;;;0.15;;
66802;SDS011;53705;49.860;8.744;2023-05-10T00:15:07;1.30;;;0.20;;
66802;SDS011;53705;49.860;8.744;2023-05-10T00:17:35;2.33;;;0.90;;
66802;SDS011;53705;49.860;8.744;2023-05-10T00:20:03;2.05;;;1.30;;
66802;SDS011;53705;49.860;8.744;2023-05-10T00:22:31;2.67;;;0.43;;
66802;SDS011;53705;49.860;8.744;2023-05-10T00:25:00;2.03;;;1.02;;
66802;SDS011;53705;49.860;8.744;2023-05-10T00:27:28;2.47;;;0.90;;
66802;SDS011;53705;49.860;8.744;2023-05-10T00:29:56;2.75;;;0.45;;
66802;SDS011;53705;49.860;8.744;2023-05-10T00:32:23;1.80;;;0.57;;
66802;SDS011;53705;49.860;8.744;2023-05-10T00:34:51;2.40;;;1.45;;
66802;SDS011;53705;49.860;8.744;2023-05-10T00:37:19;2.53;;;1.25;;
66802;SDS011;53705;49.860;8.744;2023-05-10T00:39:48;1.98;;;0.63;;
66802;SDS011;53705;49.860;8.744;2023-05-10T00:42:17;1.88;;;0.40;;
66802;SDS011;53705;49.860;8.744;2023-05-10T00:44:45;2.42;;;0.52;;
66802;SDS011;53705;49.860;8.744;2023-05-10T00:47:14;2.20;;;1.13;;
66802;SDS011;53705;49.860;8.744;2023-05-10T00:49:43;1.77;;;0.68;;
66802;SDS011;53705;49.860;8.744;2023-05-10T00:52:11;2.28;;;0.43;;
66802;SDS011;53705;49.860;8.744;2023-05-10T00:54:40;2.72;;;1.83;;
66802;SDS011;53705;49.860;8.744;2023-05-10T00:57:09;2.75;;;0.82;;
66802;SDS011;53705;49.860;8.744;2023-05-10T00:59:39;4.63;;;1.45;;
66802;SDS011;53705;49.860;8.744;2023-05-10T01:02:07;3.22;;;1.13;;
66802;SDS011;53705;49.860;8.744;2023-05-10T01:04:34;4.10;;;2.30;;
66802;SDS011;53705;49.860;8.744;2023-05-10T01:07:03;3.97;;;2.22;;
66802;SDS011;53705;49.860;8.744;2023-05-10T01:09:31;4.05;;;2.63;;
66802;SDS011;53705;49.860;8.744;2023-05-10T01:11:59;4.30;;;2.13;;
66802;SDS011;53705;49.860;8.744;2023-05-10T01:14:28;4.05;;;2.33;;
66802;SDS011;53705;49.860;8.744;2023-05-10T01:16:57;4.97;;;3.15;;
66802;SDS011;53705;49.860;8.744;2023-05-10T01:19:26;4.65;;;2.05;;
66802;SDS011;53705;49.860;8.744;2023-05-10T01:21:56;6.38;;;2.35;;
66802;SDS011;53705;49.860;8.744;2023-05-10T01:24:32;8.13;;;3.50;;
66802;SDS011;53705;49.860;8.744;2023-05-10T01:30:01;6.68;;;3.58;;
66802;SDS011;53705;49.860;8.744;2023-05-10T01:32:44;6.47;;;4.03;;
66802;SDS011;53705;49.860;8.744;2023-05-10T01:35:16;7.07;;;3.60;;
66802;SDS011;53705;49.860;8.744;2023-05-10T01:37:45;7.40;;;5.15;;
66802;SDS011;53705;49.860;8.744;2023-05-10T01:40:17;5.88;;;3.22;;
66802;SDS011;53705;49.860;8.744;2023-05-10T01:42:48;6.32;;;3.97;;
66802;SDS011;53705;49.860;8.744;2023-05-10T01:45:20;6.20;;;3.03;;
66802;SDS011;53705;49.860;8.744;2023-05-10T01:47:52;6.68;;;4.20;;
66802;SDS011;53705;49.860;8.744;2023-05-10T01:52:50;7.22;;;4.35;;
66802;SDS011;53705;49.860;8.744;2023-05-10T01:55:19;5.18;;;2.83;;
66802;SDS011;53705;49.860;8.744;2023-05-10T01:57:50;7.07;;;2.97;;
66802;SDS011;53705;49.860;8.744;2023-05-10T02:00:20;5.97;;;2.30;;
66802;SDS011;53705;49.860;8.744;2023-05-10T02:02:52;5.00;;;2.03;;
66802;SDS011;53705;49.860;8.744;2023-05-10T02:05:20;4.63;;;1.80;;
66802;SDS011;53705;49.860;8.744;2023-05-10T02:07:48;4.50;;;1.55;;
66802;SDS011;53705;49.860;8.744;2023-05-10T02:10:17;4.65;;;2.42;;
66802;SDS011;53705;49.860;8.744;2023-05-10T02:12:47;4.30;;;1.95;;
66802;SDS011;53705;49.860;8.744;2023-05-10T02:15:17;4.43;;;3.08;;
66802;SDS011;53705;49.860;8.744;2023-05-10T02:17:46;4.57;;;2.42;;
66802;SDS011;53705;49.860;8.744;2023-05-10T02:20:15;3.92;;;1.33;;
66802;SDS011;53705;49.860;8.744;2023-05-10T02:22:44;4.55;;;2.03;;
66802;SDS011;53705;49.860;8.744;2023-05-10T02:25:12;4.07;;;1.50;;
66802;SDS011;53705;49.860;8.744;2023-05-10T02:27:42;3.85;;;2.45;;
66802;SDS011;53705;49.860;8.744;2023-05-10T02:30:10;4.90;;;2.08;;
66802;SDS011;53705;49.860;8.744;2023-05-10T02:32:39;4.25;;;1.55;;
66802;SDS011;53705;49.860;8.744;2023-05-10T02:35:07;4.28;;;2.58;;
66802;SDS011;53705;49.860;8.744;2023-05-10T02:37:37;4.30;;;2.85;;
66802;SDS011;53705;49.860;8.744;2023-05-10T02:40:06;5.15;;;1.75;;
66802;SDS011;53705;49.860;8.744;2023-05-10T02:42:35;4.60;;;2.85;;
66802;SDS011;53705;49.860;8.744;2023-05-10T02:45:05;4.15;;;2.22;;
66802;SDS011;53705;49.860;8.744;2023-05-10T02:47:35;4.07;;;1.83;;
66802;SDS011;53705;49.860;8.744;2023-05-10T02:50:03;4.88;;;2.83;;
66802;SDS011;53705;49.860;8.744;2023-05-10T02:52:35;4.40;;;2.58;;
66802;SDS011;53705;49.860;8.744;2023-05-10T02:55:06;5.05;;;2.47;;
66802;SDS011;53705;49.860;8.744;2023-05-10T02:57:38;5.05;;;2.72;;
66802;SDS011;53705;49.860;8.744;2023-05-10T03:00:08;5.05;;;1.45;;
66802;SDS011;53705;49.860;8.744;2023-05-10T03:02:36;5.25;;;3.40;;
66802;SDS011;53705;49.860;8.744;2023-05-10T03:05:04;4.95;;;1.45;;
66802;SDS011;53705;49.860;8.744;2023-05-10T03:07:32;5.78;;;1.85;;
66802;SDS011;53705;49.860;8.744;2023-05-10T03:10:00;4.32;;;2.38;;
66802;SDS011;53705;49.860;8.744;2023-05-10T03:12:33;4.15;;;2.40;;
66802;SDS011;53705;49.860;8.744;2023-05-10T03:15:08;3.50;;;1.63;;
66802;SDS011;53705;49.860;8.744;2023-05-10T03:17:41;4.13;;;1.48;;
66802;SDS011;53705;49.860;8.744;2023-05-10T03:20:16;4.30;;;1.70;;
66802;SDS011;53705;49.860;8.744;2023-05-10T03:22:50;4.32;;;2.78;;
66802;SDS011;53705;49.860;8.744;2023-05-10T03:25:19;4.75;;;2.60;;
66802;SDS011;53705;49.860;8.744;2023-05-10T03:27:51;4.75;;;2.67;;
66802;SDS011;53705;49.860;8.744;2023-05-10T03:30:19;4.43;;;2.13;;
66802;SDS011;53705;49.860;8.744;2023-05-10T03:32:47;3.75;;;2.38;;
66802;SDS011;53705;49.860;8.744;2023-05-10T03:35:16;3.83;;;1.90;;
66802;SDS011;53705;49.860;8.744;2023-05-10T03:37:44;4.78;;;3.05;;
66802;SDS011;53705;49.860;8.744;2023-05-10T03:40:13;5.25;;;2.20;;
66802;SDS011;53705;49.860;8.744;2023-05-10T03:42:42;4.10;;;1.60;;
66802;SDS011;53705;49.860;8.744;2023-05-10T03:45:12;5.43;;;3.30;;
66802;SDS011;53705;49.860;8.744;2023-05-10T03:47:40;5.25;;;1.70;;
66802;SDS011;53705;49.860;8.744;2023-05-10T03:50:09;5.43;;;2.88;;
66802;SDS011;53705;49.860;8.744;2023-05-10T03:52:38;4.70;;;3.25;;
66802;SDS011;53705;49.860;8.744;2023-05-10T03:55:07;6.25;;;3.55;;
66802;SDS011;53705;49.860;8.744;2023-05-10T03:57:35;6.38;;;2.25;;
66802;SDS011;53705;49.860;8.744;2023-05-10T04:00:05;5.63;;;1.63;;
66802;SDS011;53705;49.860;8.744;2023-05-10T04:02:43;6.22;;;1.70;;
66802;SDS011;53705;49.860;8.744;2023-05-10T04:05:17;6.07;;;3.42;;
66802;SDS011;53705;49.860;8.744;2023-05-10T04:07:45;5.13;;;2.85;;
66802;SDS011;53705;49.860;8.744;2023-05-10T04:10:13;6.82;;;4.35;;
66802;SDS011;53705;49.860;8.744;2023-05-10T04:12:43;5.82;;;2.45;;
66802;SDS011;53705;49.860;8.744;2023-05-10T04:15:10;5.22;;;3.10;;
66802;SDS011;53705;49.860;8.744;2023-05-10T04:17:38;5.28;;;3.33;;
66802;SDS011;53705;49.860;8.744;2023-05-10T04:20:08;7.35;;;2.65;;
66802;SDS011;53705;49.860;8.744;2023-05-10T04:22:36;5.78;;;2.13;;
66802;SDS011;53705;49.860;8.744;2023-05-10T04:25:04;6.90;;;3.80;;
66802;SDS011;53705;49.860;8.744;2023-05-10T04:27:32;7.15;;;3.53;;
66802;SDS011;53705;49.860;8.744;2023-05-10T04:30:00;5.75;;;2.63;;
66802;SDS011;53705;49.860;8.744;2023-05-10T04:32:29;9.02;;;4.03;;
66802;SDS011;53705;49.860;8.744;2023-05-10T04:34:57;6.75;;;2.55;;
66802;SDS011;53705;49.860;8.744;2023-05-10T04:37:27;8.05;;;4.55;;
66802;SDS011;53705;49.860;8.744;2023-05-10T04:39:54;7.97;;;4.45;;
66802;SDS011;53705;49.860;8.744;2023-05-10T04:42:22;7.28;;;3.88;;
66802;SDS011;53705;49.860;8.744;2023-05-10T04:44:50;6.97;;;2.95;;
66802;SDS011;53705;49.860;8.744;2023-05-10T04:47:18;7.70;;;3.13;;
66802;SDS011;53705;49.860;8.744;2023-05-10T04:49:46;5.18;;;2.50;;
66802;SDS011;53705;49.860;8.744;2023-05-10T04:52:14;6.82;;;2.65;;
66802;SDS011;53705;49.860;8.744;2023-05-10T04:54:45;5.70;;;1.88;;
66802;SDS011;53705;49.860;8.744;2023-05-10T04:57:13;9.80;;;3.95;;
66802;SDS011;53705;49.860;8.744;2023-05-10T04:59:40;7.07;;;3.03;;
66802;SDS011;53705;49.860;8.744;2023-05-10T05:02:09;6.60;;;2.25;;
66802;SDS011;53705;49.860;8.744;2023-05-10T05:04:36;8.25;;;2.97;;
66802;SDS011;53705;49.860;8.744;2023-05-10T05:07:04;4.80;;;2.13;;
66802;SDS011;53705;49.860;8.744;2023-05-10T05:09:32;6.53;;;3.25;;
66802;SDS011;53705;49.860;8.744;2023-05-10T05:12:01;6.68;;;3.58;;
66802;SDS011;53705;49.860;8.744;2023-05-10T05:14:29;5.78;;;2.55;;
66802;SDS011;53705;49.860;8.744;2023-05-10T05:16:57;6.93;;;2.35;;
66802;SDS011;53705;49.860;8.744;2023-05-10T05:19:26;5.30;;;1.90;;
66802;SDS011;53705;49.860;8.744;2023-05-10T05:21:53;7.95;;;2.58;;
66802;SDS011;53705;49.860;8.744;2023-05-10T05:24:21;4.45;;;2.15;;
66802;SDS011;53705;49.860;8.744;2023-05-10T05:26:49;5.15;;;1.75;;
66802;SDS011;53705;49.860;8.744;2023-05-10T05:29:19;5.50;;;3.20;;
66802;SDS011;53705;49.860;8.744;2023-05-10T05:31:47;4.95;;;2.08;;
66802;SDS011;53705;49.860;8.744;2023-05-10T05:34:15;6.57;;;2.00;;
66802;SDS011;53705;49.860;8.744;2023-05-10T05:36:43;5.95;;;3.55;;
66802;SDS011;53705;49.860;8.744;2023-05-10T05:39:11;5.03;;;3.20;;
66802;SDS011;53705;49.860;8.744;2023-05-10T05:41:39;5.32;;;2.13;;
66802;SDS011;53705;49.860;8.744;2023-05-10T05:44:07;9.73;;;2.53;;
66802;SDS011;53705;49.860;8.744;2023-05-10T05:46:36;7.00;;;2.75;;
66802;SDS011;53705;49.860;8.744;2023-05-10T05:49:04;6.40;;;2.13;;
66802;SDS011;53705;49.860;8.744;2023-05-10T05:51:32;5.30;;;2.25;;
66802;SDS011;53705;49.860;8.744;2023-05-10T05:54:01;6.68;;;2.92;;
66802;SDS011;53705;49.860;8.744;2023-05-10T05:56:30;5.32;;;2.20;;
66802;SDS011;53705;49.860;8.744;2023-05-10T05:58:58;5.75;;;3.13;;
66802;SDS011;53705;49.860;8.744;2023-05-10T06:01:26;6.20;;;2.72;;
66802;SDS011;53705;49.860;8.744;2023-05-10T06:03:55;7.10;;;2.00;;
66802;SDS011;53705;49.860;8.744;2023-05-10T06:06:23;6.28;;;1.80;;
66802;SDS011;53705;49.860;8.744;2023-05-10T06:08:51;4.75;;;2.78;;
66802;SDS011;53705;49.860;8.744;2023-05-10T06:11:18;4.70;;;2.47;;
66802;SDS011;53705;49.860;8.744;2023-05-10T06:13:47;5.07;;;1.27;;
66802;SDS011;53705;49.860;8.744;2023-05-10T06:16:15;6.28;;;1.58;;
66802;SDS011;53705;49.860;8.744;2023-05-10T06:18:42;4.38;;;1.92;;
66802;SDS011;53705;49.860;8.744;2023-05-10T06:21:11;4.80;;;1.33;;
66802;SDS011;53705;49.860;8.744;2023-05-10T06:23:39;5.38;;;1.77;;
66802;SDS011;53705;49.860;8.744;2023-05-10T06:26:07;4.72;;;1.83;;
66802;SDS011;53705;49.860;8.744;2023-05-10T06:28:35;4.00;;;1.77;;
66802;SDS011;53705;49.860;8.744;2023-05-10T06:31:05;4.70;;;1.98;;
66802;SDS011;53705;49.860;8.744;2023-05-10T06:33:32;6.18;;;2.60;;
66802;SDS011;53705;49.860;8.744;2023-05-10T06:36:00;5.55;;;2.00;;
66802;SDS011;53705;49.860;8.744;2023-05-10T06:38:31;5.75;;;1.75;;
66802;SDS011;53705;49.860;8.744;2023-05-10T06:40:59;4.65;;;1.98;;
66802;SDS011;53705;49.860;8.744;2023-05-10T06:43:27;5.40;;;2.22;;
66802;SDS011;53705;49.860;8.744;2023-05-10T06:45:56;4.88;;;2.13;;
66802;SDS011;53705;49.860;8.744;2023-05-10T06:48:23;6.40;;;3.53;;
66802;SDS011;53705;49.860;8.744;2023-05-10T06:50:52;7.07;;;2.53;;
66802;SDS011;53705;49.860;8.744;2023-05-10T06:53:20;5.97;;;3.45;;
66802;SDS011;53705;49.860;8.744;2023-05-10T06:55:50;7.03;;;5.18;;
66802;SDS011;53705;49.860;8.744;2023-05-10T06:58:18;6.10;;;2.50;;
66802;SDS011;53705;49.860;8.744;2023-05-10T07:00:46;5.28;;;2.65;;
66802;SDS011;53705;49.860;8.744;2023-05-10T07:03:13;7.50;;;2.95;;
66802;SDS011;53705;49.860;8.744;2023-05-10T07:05:41;6.65;;;2.63;;
66802;SDS011;53705;49.860;8.744;2023-05-10T07:08:09;7.32;;;4.35;;
66802;SDS011;53705;49.860;8.744;2023-05-10T07:10:37;7.50;;;3.22;;
66802;SDS011;53705;49.860;8.744;2023-05-10T07:13:06;7.53;;;3.50;;
66802;SDS011;53705;49.860;8.744;2023-05-10T07:15:34;6.50;;;3.03;;
66802;SDS011;53705;49.860;8.744;2023-05-10T07:18:02;7.60;;;4.47;;
66802;SDS011;53705;49.860;8.744;2023-05-10T07:20:30;6.55;;;3.75;;
66802;SDS011;53705;49.860;8.744;2023-05-10T07:22:58;8.93;;;4.53;;
66802;SDS011;53705;49.860;8.744;2023-05-10T07:25:26;8.75;;;2.85;;
66802;SDS011;53705;49.860;8.744;2023-05-10T07:27:54;6.80;;;3.28;;
66802;SDS011;53705;49.860;8.744;2023-05-10T07:30:23;6.68;;;2.88;;
66802;SDS011;53705;49.860;8.744;2023-05-10T07:32:51;7.97;;;2.33;;
66802;SDS011;53705;49.860;8.744;2023-05-10T07:35:18;6.32;;;2.67;;
66802;SDS011;53705;49.860;8.744;2023-05-10T07:37:46;7.55;;;2.80;;
66802;SDS011;53705;49.860;8.744;2023-05-10T07:40:14;7.13;;;2.97;;
66802;SDS011;53705;49.860;8.744;2023-05-10T07:42:42;5.88;;;2.38;;
66802;SDS011;53705;49.860;8.744;2023-05-10T07:45:10;4.80;;;2.40;;
66802;SDS011;53705;49.860;8.744;2023-05-10T07:47:39;6.75;;;2.75;;
66802;SDS011;53705;49.860;8.744;2023-05-10T07:50:07;4.55;;;1.83;;
66802;SDS011;53705;49.860;8.744;2023-05-10T07:52:35;4.85;;;2.05;;
66802;SDS011;53705;49.860;8.744;2023-05-10T07:55:03;5.75;;;2.45;;
66802;SDS011;53705;49.860;8.744;2023-05-10T07:57:32;5.72;;;2.38;;
66802;SDS011;53705;49.860;8.744;2023-05-10T07:59:59;4.72;;;2.47;;
66802;SDS011;53705;49.860;8.744;2023-05-10T08:02:27;8.32;;;3.58;;
66802;SDS011;53705;49.860;8.744;2023-05-10T08:04:57;3.78;;;2.00;;
66802;SDS011;53705;49.860;8.744;2023-05-10T08:07:25;5.45;;;1.95;;
66802;SDS011;53705;49.860;8.744;2023-05-10T08:09:52;3.25;;;1.60;;
66802;SDS011;53705;49.860;8.744;2023-05-10T08:12:20;8.73;;;2.42;;
66802;SDS011;53705;49.860;8.744;2023-05-10T08:14:48;5.82;;;1.52;;
66802;SDS011;53705;49.860;8.744;2023-05-10T08:17:16;3.80;;;1.60;;
66802;SDS011;53705;49.860;8.744;2023-05-10T08:19:45;6.50;;;1.42;;
66802;SDS011;53705;49.860;8.744;2023-05-10T08:22:15;3.35;;;1.10;;
66802;SDS011;53705;49.860;8.744;2023-05-10T08:24:43;4.30;;;1.50;;
66802;SDS011;53705;49.860;8.744;2023-05-10T08:27:10;3.75;;;1.30;;
66802;SDS011;53705;49.860;8.744;2023-05-10T08:29:38;5.35;;;2.67;;
66802;SDS011;53705;49.860;8.744;2023-05-10T08:32:15;7.63;;;2.78;;
66802;SDS011;53705;49.860;8.744;2023-05-10T08:34:43;4.88;;;2.75;;
66802;SDS011;53705;49.860;8.744;2023-05-10T08:37:11;3.45;;;1.50;;
66802;SDS011;53705;49.860;8.744;2023-05-10T08:39:41;5.45;;;2.92;;
66802;SDS011;53705;49.860;8.744;2023-05-10T08:42:09;6.28;;;2.97;;
66802;SDS011;53705;49.860;8.744;2023-05-10T08:44:36;7.57;;;3.05;;
66802;SDS011;53705;49.860;8.744;2023-05-10T08:47:05;3.72;;;1.38;;
66802;SDS011;53705;49.860;8.744;2023-05-10T08:49:33;4.28;;;1.52;;
66802;SDS011;53705;49.860;8.744;2023-05-10T08:52:02;4.97;;;1.60;;
66802;SDS011;53705;49.860;8.744;2023-05-10T08:54:33;5.22;;;3.28;;
66802;SDS011;53705;49.860;8.744;2023-05-10T08:57:03;8.57;;;4.30;;
66802;SDS011;53705;49.860;8.744;2023-05-10T08:59:31;4.38;;;2.95;;
66802;SDS011;53705;49.860;8.744;2023-05-10T09:01:59;5.38;;;3.08;;
66802;SDS011;53705;49.860;8.744;2023-05-10T09:04:27;5.05;;;2.15;;
66802;SDS011;53705;49.860;8.744;2023-05-10T09:06:56;7.28;;;2.28;;
66802;SDS011;53705;49.860;8.744;2023-05-10T09:09:24;5.43;;;3.55;;
66802;SDS011;53705;49.860;8.744;2023-05-10T09:11:52;4.43;;;2.13;;
66802;SDS011;53705;49.860;8.744;2023-05-10T09:14:22;4.13;;;2.83;;
66802;SDS011;53705;49.860;8.744;2023-05-10T09:16:51;4.97;;;2.60;;
66802;SDS011;53705;49.860;8.744;2023-05-10T09:19:20;3.65;;;1.38;;
66802;SDS011;53705;49.860;8.744;2023-05-10T09:21:48;4.60;;;2.80;;
66802;SDS011;53705;49.860;8.744;2023-05-10T09:24:16;4.95;;;1.50;;
66802;SDS011;53705;49.860;8.744;2023-05-10T09:26:46;3.85;;;1.15;;
66802;SDS011;53705;49.860;8.744;2023-05-10T09:29:15;5.57;;;1.27;;
66802;SDS011;53705;49.860;8.744;2023-05-10T09:31:45;4.00;;;1.10;;
66802;SDS011;53705;49.860;8.744;2023-05-10T09:34:17;2.53;;;0.80;;
66802;SDS011;53705;49.860;8.744;2023-05-10T09:36:51;4.35;;;0.98;;
66802;SDS011;53705;49.860;8.744;2023-05-10T09:39:20;5.45;;;0.88;;
66802;SDS011;53705;49.860;8.744;2023-05-10T09:41:47;7.57;;;0.90;;
66802;SDS011;53705;49.860;8.744;2023-05-10T09:44:18;4.13;;;1.65;;
66802;SDS011;53705;49.860;8.744;2023-05-10T09:46:51;3.70;;;2.05;;
66802;SDS011;53705;49.860;8.744;2023-05-10T09:49:19;2.60;;;0.60;;
66802;SDS011;53705;49.860;8.744;2023-05-10T09:51:47;4.35;;;1.48;;
66802;SDS011;53705;49.860;8.744;2023-05-10T09:54:15;4.65;;;2.00;;
66802;SDS011;53705;49.860;8.744;2023-05-10T09:56:43;4.10;;;0.68;;
66802;SDS011;53705;49.860;8.744;2023-05-10T09:59:11;2.90;;;1.58;;
66802;SDS011;53705;49.860;8.744;2023-05-10T10:01:39;1.80;;;0.40;;
66802;SDS011;53705;49.860;8.744;2023-05-10T10:04:09;3.00;;;1.70;;
66802;SDS011;53705;49.860;8.744;2023-05-10T10:06:38;2.78;;;0.77;;
66802;SDS011;53705;49.860;8.744;2023-05-10T10:09:06;2.15;;;0.60;;
66802;SDS011;53705;49.860;8.744;2023-05-10T10:11:34;3.63;;;1.55;;
66802;SDS011;53705;49.860;8.744;2023-05-10T10:14:02;2.85;;;0.47;;
66802;SDS011;53705;49.860;8.744;2023-05-10T10:16:30;2.60;;;0.47;;
66802;SDS011;53705;49.860;8.744;2023-05-10T10:18:59;2.95;;;0.32;;
66802;SDS011;53705;49.860;8.744;2023-05-10T10:21:28;2.03;;;0.63;;
66802;SDS011;53705;49.860;8.744;2023-05-10T10:23:57;1.83;;;0.47;;
66802;SDS011;53705;49.860;8.744;2023-05-10T10:26:25;1.80;;;0.70;;
66802;SDS011;53705;49.860;8.744;2023-05-10T10:28:56;5.07;;;0.63;;
66802;SDS011;53705;49.860;8.744;2023-05-10T10:31:26;1.92;;;0.50;;
66802;SDS011;53705;49.860;8.744;2023-05-10T10:33:56;2.47;;;0.38;;
66802;SDS011;53705;49.860;8.744;2023-05-10T10:36:26;3.33;;;0.63;;
66802;SDS011;53705;49.860;8.744;2023-05-10T10:38:56;2.90;;;0.93;;
66802;SDS011;53705;49.860;8.744;2023-05-10T10:41:29;2.33;;;0.73;;
66802;SDS011;53705;49.860;8.744;2023-05-10T10:47:00;4.38;;;0.55;;
66802;SDS011;53705;49.860;8.744;2023-05-10T10:49:30;2.47;;;0.90;;
66802;SDS011;53705;49.860;8.744;2023-05-10T10:52:15;2.97;;;0.93;;
66802;SDS011;53705;49.860;8.744;2023-05-10T10:54:48;3.92;;;0.82;;
66802;SDS011;53705;49.860;8.744;2023-05-10T10:57:17;3.42;;;0.40;;
66802;SDS011;53705;49.860;8.744;2023-05-10T10:59:45;1.83;;;0.57;;
66802;SDS011;53705;49.860;8.744;2023-05-10T11:02:32;1.75;;;0.30;;
66802;SDS011;53705;49.860;8.744;2023-05-10T11:05:00;5.65;;;0.35;;
66802;SDS011;53705;49.860;8.744;2023-05-10T11:07:51;2.13;;;0.22;;
66802;SDS011;53705;49.860;8.744;2023-05-10T11:10:20;1.50;;;0.43;;
66802;SDS011;53705;49.860;8.744;2023-05-10T11:12:52;2.15;;;0.50;;
66802;SDS011;53705;49.860;8.744;2023-05-10T11:15:19;1.45;;;0.30;;
66802;SDS011;53705;49.860;8.744;2023-05-10T11:17:47;7.93;;;0.30;;
66802;SDS011;53705;49.860;8.744;2023-05-10T11:20:18;3.83;;;0.30;;
66802;SDS011;53705;49.860;8.744;2023-05-10T11:22:49;2.28;;;1.13;;
66802;SDS011;53705;49.860;8.744;2023-05-10T11:25:18;2.47;;;0.55;;
66802;SDS011;53705;49.860;8.744;2023-05-10T11:27:47;2.13;;;1.30;;
66802;SDS011;53705;49.860;8.744;2023-05-10T11:30:15;1.80;;;0.32;;
66802;SDS011;53705;49.860;8.744;2023-05-10T11:32:44;4.68;;;0.30;;
66802;SDS011;53705;49.860;8.744;2023-05-10T11:35:12;2.55;;;0.55;;
66802;SDS011;53705;49.860;8.744;2023-05-10T11:37:40;2.30;;;0.63;;
66802;SDS011;53705;49.860;8.744;2023-05-10T11:40:10;1.77;;;0.50;;
66802;SDS011;53705;49.860;8.744;2023-05-10T11:42:38;3.30;;;0.28;;
66802;SDS011;53705;49.860;8.744;2023-05-10T11:45:08;2.30;;;1.10;;
66802;SDS011;53705;49.860;8.744;2023-05-10T11:47:37;2.92;;;0.57;;
66802;SDS011;53705;49.860;8.744;2023-05-10T11:50:08;2.22;;;0.52;;
66802;SDS011;53705;49.860;8.744;2023-05-10T11:52:36;3.72;;;0.60;;
66802;SDS011;53705;49.860;8.744;2023-05-10T11:55:05;1.45;;;0.30;;
66802;SDS011;53705;49.860;8.744;2023-05-10T11:57:34;2.10;;;1.35;;
66802;SDS011;53705;49.860;8.744;2023-05-10T12:00:05;2.08;;;0.90;;
66802;SDS011;53705;49.860;8.744;2023-05-10T12:02:35;3.50;;;0.82;;
66802;SDS011;53705;49.860;8.744;2023-05-10T12:05:03;2.88;;;0.20;;
66802;SDS011;53705;49.860;8.744;2023-05-10T12:07:31;2.67;;;0.75;;
66802;SDS011;53705;49.860;8.744;2023-05-10T12:10:03;1.60;;;0.22;;
66802;SDS011;53705;49.860;8.744;2023-05-10T12:12:40;1.20;;;0.65;;
66802;SDS011;53705;49.860;8.744;2023-05-10T12:15:12;1.77;;;0.10;;
66802;SDS011;53705;49.860;8.744;2023-05-10T12:17:46;1.77;;;0.20;;
66802;SDS011;53705;49.860;8.744;2023-05-10T12:20:15;2.92;;;0.50;;
66802;SDS011;53705;49.860;8.744;2023-05-10T12:22:44;1.67;;;0.30;;
66802;SDS011;53705;49.860;8.744;2023-05-10T12:25:11;1.98;;;0.60;;
66802;SDS011;53705;49.860;8.744;2023-05-10T12:27:39;3.13;;;1.30;;
66802;SDS011;53705;49.860;8.744;2023-05-10T12:30:07;1.48;;;0.25;;
66802;SDS011;53705;49.860;8.744;2023-05-10T12:32:38;2.88;;;0.30;;
66802;SDS011;53705;49.860;8.744;2023-05-10T12:35:08;3.08;;;0.95;;
66802;SDS011;53705;49.860;8.744;2023-05-10T12:37:36;1.63;;;0.20;;
66802;SDS011;53705;49.860;8.744;2023-05-10T12:40:06;2.83;;;0.13;;
66802;SDS011;53705;49.860;8.744;2023-05-10T12:42:35;2.08;;;0.28;;
66802;SDS011;53705;49.860;8.744;2023-05-10T12:45:03;1.10;;;0.17;;
66802;SDS011;53705;49.860;8.744;2023-05-10T12:47:31;2.70;;;1.30;;
66802;SDS011;53705;49.860;8.744;2023-05-10T12:49:59;2.50;;;0.60;;
66802;SDS011;53705;49.860;8.744;2023-05-10T12:52:30;1.67;;;0.65;;
66802;SDS011;53705;49.860;8.744;2023-05-10T12:54:58;3.60;;;0.15;;
66802;SDS011;53705;49.860;8.744;2023-05-10T12:57:27;3.85;;;0.47;;
66802;SDS011;53705;49.860;8.744;2023-05-10T12:59:55;1.88;;;0.77;;
66802;SDS011;53705;49.860;8.744;2023-05-10T13:02:23;1.52;;;0.20;;
66802;SDS011;53705;49.860;8.744;2023-05-10T13:04:50;2.63;;;0.17;;
66802;SDS011;53705;49.860;8.744;2023-05-10T13:07:18;1.30;;;0.30;;
66802;SDS011;53705;49.860;8.744;2023-05-10T13:09:47;2.22;;;0.30;;
66802;SDS011;53705;49.860;8.744;2023-05-10T13:12:15;1.92;;;0.30;;
66802;SDS011;53705;49.860;8.744;2023-05-10T13:14:43;2.45;;;0.28;;
66802;SDS011;53705;49.860;8.744;2023-05-10T13:17:11;1.58;;;0.32;;
66802;SDS011;53705;49.860;8.744;2023-05-10T13:19:39;2.72;;;0.55;;
66802;SDS011;53705;49.860;8.744;2023-05-10T13:22:06;1.83;;;0.50;;
66802;SDS011;53705;49.860;8.744;2023-05-10T13:24:34;1.83;;;0.40;;
66802;SDS011;53705;49.860;8.744;2023-05-10T13:27:03;2.35;;;0.25;;
66802;SDS011;53705;49.860;8.744;2023-05-10T13:29:31;2.70;;;0.43;;
66802;SDS011;53705;49.860;8.744;2023-05-10T13:31:59;2.50;;;0.40;;
66802;SDS011;53705;49.860;8.744;2023-05-10T13:34:28;3.10;;;2.00;;
66802;SDS011;53705;49.860;8.744;2023-05-10T13:36:56;2.95;;;0.55;;
66802;SDS011;53705;49.860;8.744;2023-05-10T13:39:25;4.22;;;1.52;;
66802;SDS011;53705;49.860;8.744;2023-05-10T13:41:53;2.97;;;0.82;;
66802;SDS011;53705;49.860;8.744;2023-05-10T13:44:24;4.82;;;0.38;;
66802;SDS011;53705;49.860;8.744;2023-05-10T13:46:52;6.18;;;0.30;;
66802;SDS011;53705;49.860;8.744;2023-05-10T13:49:22;2.80;;;0.88;;
66802;SDS011;53705;49.860;8.744;2023-05-10T13:51:50;2.60;;;1.58;;
66802;SDS011;53705;49.860;8.744;2023-05-10T13:54:18;2.33;;;0.65;;
66802;SDS011;53705;49.860;8.744;2023-05-10T13:56:46;2.92;;;0.20;;
66802;SDS011;53705;49.860;8.744;2023-05-10T13:59:15;1.75;;;0.65;;
66802;SDS011;53705;49.860;8.744;2023-05-10T14:01:44;4.75;;;0.52;;
66802;SDS011;53705;49.860;8.744;2023-05-10T14:04:11;3.33;;;0.20;;
66802;SDS011;53705;49.860;8.744;2023-05-10T14:06:39;2.65;;;0.32;;
66802;SDS011;53705;49.860;8.744;2023-05-10T14:09:07;3.92;;;0.52;;
66802;SDS011;53705;49.860;8.744;2023-05-10T14:11:35;3.17;;;0.93;;
66802;SDS011;53705;49.860;8.744;2023-05-10T14:14:02;3.03;;;0.85;;
66802;SDS011;53705;49.860;8.744;2023-05-10T14:16:30;2.05;;;0.93;;
66802;SDS011;53705;49.860;8.744;2023-05-10T14:18:59;2.83;;;0.30;;
66802;SDS011;53705;49.860;8.744;2023-05-10T14:21:28;2.42;;;0.60;;
66802;SDS011;53705;49.860;8.744;2023-05-10T14:23:56;2.30;;;0.10;;
66802;SDS011;53705;49.860;8.744;2023-05-10T14:26:24;2.35;;;0.20;;
66802;SDS011;53705;49.860;8.744;2023-05-10T14:28:52;1.67;;;0.10;;
66802;SDS011;53705;49.860;8.744;2023-05-10T14:31:20;2.20;;;0.20;;
66802;SDS011;53705;49.860;8.744;2023-05-10T14:33:49;3.92;;;0.43;;
66802;SDS011;53705;49.860;8.744;2023-05-10T14:36:18;4.15;;;1.52;;
66802;SDS011;53705;49.860;8.744;2023-05-10T14:38:46;2.88;;;2.00;;
66802;SDS011;53705;49.860;8.744;2023-05-10T14:41:14;3.35;;;0.82;;
66802;SDS011;53705;49.860;8.744;2023-05-10T14:43:43;2.88;;;1.30;;
66802;SDS011;53705;49.860;8.744;2023-05-10T14:46:11;4.85;;;1.50;;
66802;SDS011;53705;49.860;8.744;2023-05-10T14:48:39;2.88;;;1.52;;
66802;SDS011;53705;49.860;8.744;2023-05-10T14:51:07;2.33;;;0.22;;
66802;SDS011;53705;49.860;8.744;2023-05-10T14:53:36;1.67;;;0.13;;
66802;SDS011;53705;49.860;8.744;2023-05-10T14:56:03;2.17;;;0.45;;
66802;SDS011;53705;49.860;8.744;2023-05-10T14:58:31;4.65;;;0.50;;
66802;SDS011;53705;49.860;8.744;2023-05-10T15:00:59;3.67;;;1.13;;
66802;SDS011;53705;49.860;8.744;2023-05-10T15:03:28;2.13;;;1.08;;
66802;SDS011;53705;49.860;8.744;2023-05-10T15:05:57;2.95;;;1.63;;